sensor_id;sensor_type;location;lat;lon;timestamp;P1;durP1;ratioP1;P2;durP2;ratioP2
46266;SDS011;31998;48.798;15.066;2023-03-16T00:00:54;3.70;;;3.40;;
46266;SDS011;31998;48.798;15.066;2023-03-16T00:03:20;3.47;;;3.17;;
46266;SDS011;31998;48.798;15.066;2023-03-16T00:05:45;3.90;;;3.70;;
46266;SDS011;31998;48.798;15.066;2023-03-16T00:08:11;3.13;;;3.03;;
46266;SDS011;31998;48.798;15.066;2023-03-16T00:10:36;4.00;;;3.83;;
46266;SDS011;31998;48.798;15.066;2023-03-16T00:13:01;4.30;;;4.00;;
46266;SDS011;31998;48.798;15.066;2023-03-16T00:15:27;4.10;;;3.90;;
46266;SDS011;31998;48.798;15.066;2023-03-16T00:17:53;3.93;;;3.73;;
46266;SDS011;31998;48.798;15.066;2023-03-16T00:20:19;4.33;;;4.03;;
46266;SDS011;31998;48.798;15.066;2023-03-16T00:22:44;4.50;;;4.17;;
46266;SDS011;31998;48.798;15.066;2023-03-16T00:25:10;4.63;;;3.77;;
46266;SDS011;31998;48.798;15.066;2023-03-16T00:27:36;4.70;;;4.50;;
46266;SDS011;31998;48.798;15.066;2023-03-16T00:30:01;5.37;;;4.97;;
46266;SDS011;31998;48.798;15.066;2023-03-16T00:32:37;4.50;;;4.10;;
46266;SDS011;31998;48.798;15.066;2023-03-16T00:35:02;3.80;;;3.57;;
46266;SDS011;31998;48.798;15.066;2023-03-16T00:37:29;4.47;;;4.17;;
46266;SDS011;31998;48.798;15.066;2023-03-16T00:39:54;4.40;;;4.00;;
46266;SDS011;31998;48.798;15.066;2023-03-16T00:42:20;3.97;;;3.77;;
46266;SDS011;31998;48.798;15.066;2023-03-16T00:44:47;4.60;;;4.27;;
46266;SDS011;31998;48.798;15.066;2023-03-16T00:47:13;4.90;;;4.50;;
46266;SDS011;31998;48.798;15.066;2023-03-16T00:49:38;4.53;;;4.00;;
46266;SDS011;31998;48.798;15.066;2023-03-16T00:52:04;4.70;;;4.40;;
46266;SDS011;31998;48.798;15.066;2023-03-16T00:54:30;4.17;;;3.87;;
46266;SDS011;31998;48.798;15.066;2023-03-16T00:56:59;5.33;;;5.00;;
46266;SDS011;31998;48.798;15.066;2023-03-16T00:59:24;4.20;;;4.00;;
46266;SDS011;31998;48.798;15.066;2023-03-16T01:01:52;4.77;;;4.57;;
46266;SDS011;31998;48.798;15.066;2023-03-16T01:04:18;4.90;;;4.50;;
46266;SDS011;31998;48.798;15.066;2023-03-16T01:06:44;4.30;;;4.10;;
46266;SDS011;31998;48.798;15.066;2023-03-16T01:09:09;7.60;;;4.23;;
46266;SDS011;31998;48.798;15.066;2023-03-16T01:11:35;5.10;;;4.73;;
46266;SDS011;31998;48.798;15.066;2023-03-16T01:14:00;4.60;;;4.40;;
46266;SDS011;31998;48.798;15.066;2023-03-16T01:16:26;5.70;;;4.50;;
46266;SDS011;31998;48.798;15.066;2023-03-16T01:18:51;5.00;;;4.50;;
46266;SDS011;31998;48.798;15.066;2023-03-16T01:21:16;5.10;;;4.70;;
46266;SDS011;31998;48.798;15.066;2023-03-16T01:23:42;5.00;;;4.70;;
46266;SDS011;31998;48.798;15.066;2023-03-16T01:26:08;4.60;;;4.40;;
46266;SDS011;31998;48.798;15.066;2023-03-16T01:28:33;8.30;;;4.60;;
46266;SDS011;31998;48.798;15.066;2023-03-16T01:31:00;5.73;;;5.30;;
46266;SDS011;31998;48.798;15.066;2023-03-16T01:33:26;5.27;;;4.80;;
46266;SDS011;31998;48.798;15.066;2023-03-16T01:35:52;5.10;;;4.60;;
46266;SDS011;31998;48.798;15.066;2023-03-16T01:38:18;4.47;;;4.27;;
46266;SDS011;31998;48.798;15.066;2023-03-16T01:40:43;4.53;;;4.30;;
46266;SDS011;31998;48.798;15.066;2023-03-16T01:43:09;5.13;;;4.73;;
46266;SDS011;31998;48.798;15.066;2023-03-16T01:48:20;5.77;;;5.20;;
46266;SDS011;31998;48.798;15.066;2023-03-16T01:50:45;5.97;;;5.50;;
46266;SDS011;31998;48.798;15.066;2023-03-16T01:53:11;5.83;;;5.43;;
46266;SDS011;31998;48.798;15.066;2023-03-16T01:55:36;4.97;;;4.77;;
46266;SDS011;31998;48.798;15.066;2023-03-16T01:58:02;6.57;;;5.63;;
46266;SDS011;31998;48.798;15.066;2023-03-16T02:00:27;5.87;;;5.50;;
46266;SDS011;31998;48.798;15.066;2023-03-16T02:03:00;6.53;;;5.93;;
46266;SDS011;31998;48.798;15.066;2023-03-16T02:05:32;6.17;;;5.30;;
46266;SDS011;31998;48.798;15.066;2023-03-16T02:07:57;5.30;;;4.90;;
46266;SDS011;31998;48.798;15.066;2023-03-16T02:10:24;5.07;;;4.73;;
46266;SDS011;31998;48.798;15.066;2023-03-16T02:12:50;6.77;;;6.13;;
46266;SDS011;31998;48.798;15.066;2023-03-16T02:15:16;6.03;;;5.57;;
46266;SDS011;31998;48.798;15.066;2023-03-16T02:17:42;6.30;;;5.70;;
46266;SDS011;31998;48.798;15.066;2023-03-16T02:22:34;6.27;;;5.77;;
46266;SDS011;31998;48.798;15.066;2023-03-16T02:25:00;6.70;;;5.20;;
46266;SDS011;31998;48.798;15.066;2023-03-16T02:32:19;7.07;;;6.23;;
46266;SDS011;31998;48.798;15.066;2023-03-16T02:34:48;7.97;;;7.27;;
46266;SDS011;31998;48.798;15.066;2023-03-16T02:37:13;6.93;;;5.80;;
46266;SDS011;31998;48.798;15.066;2023-03-16T02:39:39;6.67;;;6.17;;
46266;SDS011;31998;48.798;15.066;2023-03-16T02:42:04;6.27;;;5.77;;
46266;SDS011;31998;48.798;15.066;2023-03-16T02:44:30;6.90;;;6.20;;
46266;SDS011;31998;48.798;15.066;2023-03-16T02:46:59;6.73;;;6.23;;
46266;SDS011;31998;48.798;15.066;2023-03-16T02:49:29;7.97;;;7.20;;
46266;SDS011;31998;48.798;15.066;2023-03-16T02:51:57;8.63;;;7.17;;
46266;SDS011;31998;48.798;15.066;2023-03-16T02:54:22;9.90;;;8.10;;
46266;SDS011;31998;48.798;15.066;2023-03-16T02:56:48;8.13;;;7.33;;
46266;SDS011;31998;48.798;15.066;2023-03-16T02:59:13;8.20;;;7.40;;
46266;SDS011;31998;48.798;15.066;2023-03-16T03:01:38;8.13;;;7.20;;
46266;SDS011;31998;48.798;15.066;2023-03-16T03:04:04;7.20;;;6.60;;
46266;SDS011;31998;48.798;15.066;2023-03-16T03:06:29;9.63;;;6.53;;
46266;SDS011;31998;48.798;15.066;2023-03-16T03:08:56;7.37;;;6.77;;
46266;SDS011;31998;48.798;15.066;2023-03-16T03:11:21;7.97;;;7.10;;
46266;SDS011;31998;48.798;15.066;2023-03-16T03:13:47;7.80;;;7.00;;
46266;SDS011;31998;48.798;15.066;2023-03-16T03:16:12;8.70;;;7.10;;
46266;SDS011;31998;48.798;15.066;2023-03-16T03:18:38;7.60;;;6.97;;
46266;SDS011;31998;48.798;15.066;2023-03-16T03:21:04;8.43;;;7.63;;
46266;SDS011;31998;48.798;15.066;2023-03-16T03:23:29;8.40;;;6.80;;
46266;SDS011;31998;48.798;15.066;2023-03-16T03:25:58;9.93;;;7.60;;
46266;SDS011;31998;48.798;15.066;2023-03-16T03:28:23;11.07;;;7.80;;
46266;SDS011;31998;48.798;15.066;2023-03-16T03:30:48;8.53;;;7.83;;
46266;SDS011;31998;48.798;15.066;2023-03-16T03:33:13;8.27;;;7.10;;
46266;SDS011;31998;48.798;15.066;2023-03-16T03:35:39;8.13;;;7.43;;
46266;SDS011;31998;48.798;15.066;2023-03-16T03:38:05;8.17;;;7.47;;
46266;SDS011;31998;48.798;15.066;2023-03-16T03:40:32;11.50;;;7.10;;
46266;SDS011;31998;48.798;15.066;2023-03-16T03:42:57;7.90;;;6.67;;
46266;SDS011;31998;48.798;15.066;2023-03-16T03:45:22;9.60;;;7.93;;
46266;SDS011;31998;48.798;15.066;2023-03-16T03:47:47;8.10;;;7.40;;
46266;SDS011;31998;48.798;15.066;2023-03-16T03:50:13;9.33;;;8.27;;
46266;SDS011;31998;48.798;15.066;2023-03-16T03:52:38;9.17;;;8.20;;
46266;SDS011;31998;48.798;15.066;2023-03-16T03:55:03;9.40;;;8.50;;
46266;SDS011;31998;48.798;15.066;2023-03-16T03:57:29;12.60;;;8.23;;
46266;SDS011;31998;48.798;15.066;2023-03-16T03:59:55;8.03;;;7.23;;
46266;SDS011;31998;48.798;15.066;2023-03-16T04:02:20;9.00;;;8.00;;
46266;SDS011;31998;48.798;15.066;2023-03-16T04:04:45;11.57;;;8.60;;
46266;SDS011;31998;48.798;15.066;2023-03-16T04:07:10;10.30;;;8.50;;
46266;SDS011;31998;48.798;15.066;2023-03-16T04:09:36;9.80;;;8.70;;
46266;SDS011;31998;48.798;15.066;2023-03-16T04:12:01;10.30;;;9.30;;
46266;SDS011;31998;48.798;15.066;2023-03-16T04:14:27;11.50;;;9.00;;
46266;SDS011;31998;48.798;15.066;2023-03-16T04:16:52;10.40;;;8.87;;
46266;SDS011;31998;48.798;15.066;2023-03-16T04:19:18;8.20;;;7.40;;
46266;SDS011;31998;48.798;15.066;2023-03-16T04:21:44;9.43;;;8.57;;
46266;SDS011;31998;48.798;15.066;2023-03-16T04:24:09;14.40;;;10.03;;
46266;SDS011;31998;48.798;15.066;2023-03-16T04:26:34;10.80;;;8.73;;
46266;SDS011;31998;48.798;15.066;2023-03-16T04:28:59;9.40;;;8.50;;
46266;SDS011;31998;48.798;15.066;2023-03-16T04:31:26;10.70;;;9.60;;
46266;SDS011;31998;48.798;15.066;2023-03-16T04:33:51;16.50;;;7.90;;
46266;SDS011;31998;48.798;15.066;2023-03-16T04:36:19;11.20;;;8.43;;
46266;SDS011;31998;48.798;15.066;2023-03-16T04:38:51;14.93;;;8.10;;
46266;SDS011;31998;48.798;15.066;2023-03-16T04:41:16;14.10;;;8.37;;
46266;SDS011;31998;48.798;15.066;2023-03-16T04:43:42;8.73;;;7.70;;
46266;SDS011;31998;48.798;15.066;2023-03-16T04:46:07;12.00;;;8.53;;
46266;SDS011;31998;48.798;15.066;2023-03-16T04:48:32;11.10;;;8.60;;
46266;SDS011;31998;48.798;15.066;2023-03-16T04:50:58;8.00;;;7.40;;
46266;SDS011;31998;48.798;15.066;2023-03-16T04:53:23;7.67;;;6.87;;
46266;SDS011;31998;48.798;15.066;2023-03-16T04:55:48;8.27;;;7.37;;
46266;SDS011;31998;48.798;15.066;2023-03-16T04:58:13;10.27;;;7.87;;
46266;SDS011;31998;48.798;15.066;2023-03-16T05:00:39;11.00;;;8.10;;
46266;SDS011;31998;48.798;15.066;2023-03-16T05:03:05;7.83;;;7.10;;
46266;SDS011;31998;48.798;15.066;2023-03-16T05:05:31;10.43;;;7.80;;
46266;SDS011;31998;48.798;15.066;2023-03-16T05:07:56;8.50;;;7.63;;
46266;SDS011;31998;48.798;15.066;2023-03-16T05:10:21;13.30;;;8.00;;
46266;SDS011;31998;48.798;15.066;2023-03-16T05:12:46;9.60;;;6.93;;
46266;SDS011;31998;48.798;15.066;2023-03-16T05:15:12;8.43;;;7.43;;
46266;SDS011;31998;48.798;15.066;2023-03-16T05:17:37;9.67;;;8.53;;
46266;SDS011;31998;48.798;15.066;2023-03-16T05:20:04;9.20;;;8.07;;
46266;SDS011;31998;48.798;15.066;2023-03-16T05:22:33;11.93;;;8.67;;
46266;SDS011;31998;48.798;15.066;2023-03-16T05:24:59;7.70;;;7.00;;
46266;SDS011;31998;48.798;15.066;2023-03-16T05:27:27;9.33;;;7.40;;
46266;SDS011;31998;48.798;15.066;2023-03-16T05:29:52;17.03;;;7.90;;
46266;SDS011;31998;48.798;15.066;2023-03-16T05:32:17;6.73;;;6.13;;
46266;SDS011;31998;48.798;15.066;2023-03-16T05:34:42;10.10;;;7.00;;
46266;SDS011;31998;48.798;15.066;2023-03-16T05:37:08;10.80;;;8.30;;
46266;SDS011;31998;48.798;15.066;2023-03-16T05:39:33;7.17;;;6.53;;
46266;SDS011;31998;48.798;15.066;2023-03-16T05:41:58;7.80;;;7.00;;
46266;SDS011;31998;48.798;15.066;2023-03-16T05:44:24;15.37;;;8.23;;
46266;SDS011;31998;48.798;15.066;2023-03-16T05:46:49;10.57;;;7.17;;
46266;SDS011;31998;48.798;15.066;2023-03-16T05:49:15;12.13;;;9.60;;
46266;SDS011;31998;48.798;15.066;2023-03-16T05:51:40;8.03;;;7.13;;
46266;SDS011;31998;48.798;15.066;2023-03-16T05:54:05;10.00;;;7.33;;
46266;SDS011;31998;48.798;15.066;2023-03-16T05:56:30;11.90;;;8.37;;
46266;SDS011;31998;48.798;15.066;2023-03-16T05:58:55;10.60;;;7.70;;
46266;SDS011;31998;48.798;15.066;2023-03-16T06:01:21;8.33;;;7.50;;
46266;SDS011;31998;48.798;15.066;2023-03-16T06:03:47;9.93;;;8.00;;
46266;SDS011;31998;48.798;15.066;2023-03-16T06:06:13;10.67;;;7.80;;
46266;SDS011;31998;48.798;15.066;2023-03-16T06:08:39;11.60;;;8.07;;
46266;SDS011;31998;48.798;15.066;2023-03-16T06:11:04;7.83;;;7.03;;
46266;SDS011;31998;48.798;15.066;2023-03-16T06:13:29;8.77;;;7.60;;
46266;SDS011;31998;48.798;15.066;2023-03-16T06:15:55;17.40;;;7.20;;
46266;SDS011;31998;48.798;15.066;2023-03-16T06:18:20;10.00;;;6.73;;
46266;SDS011;31998;48.798;15.066;2023-03-16T06:20:45;8.07;;;7.37;;
46266;SDS011;31998;48.798;15.066;2023-03-16T06:23:11;8.93;;;7.20;;
46266;SDS011;31998;48.798;15.066;2023-03-16T06:25:36;25.63;;;6.67;;
46266;SDS011;31998;48.798;15.066;2023-03-16T06:28:01;8.80;;;7.10;;
46266;SDS011;31998;48.798;15.066;2023-03-16T06:30:26;11.20;;;7.60;;
46266;SDS011;31998;48.798;15.066;2023-03-16T06:32:52;7.57;;;6.73;;
46266;SDS011;31998;48.798;15.066;2023-03-16T06:35:17;7.50;;;6.60;;
46266;SDS011;31998;48.798;15.066;2023-03-16T06:37:42;6.60;;;6.17;;
46266;SDS011;31998;48.798;15.066;2023-03-16T06:40:08;11.63;;;6.60;;
46266;SDS011;31998;48.798;15.066;2023-03-16T06:42:33;6.53;;;5.93;;
46266;SDS011;31998;48.798;15.066;2023-03-16T06:44:59;6.90;;;6.03;;
46266;SDS011;31998;48.798;15.066;2023-03-16T06:47:24;6.83;;;6.03;;
46266;SDS011;31998;48.798;15.066;2023-03-16T06:49:49;6.40;;;5.90;;
46266;SDS011;31998;48.798;15.066;2023-03-16T06:52:15;10.83;;;5.63;;
46266;SDS011;31998;48.798;15.066;2023-03-16T06:54:41;16.00;;;7.17;;
46266;SDS011;31998;48.798;15.066;2023-03-16T06:57:06;14.40;;;7.27;;
46266;SDS011;31998;48.798;15.066;2023-03-16T06:59:31;11.73;;;7.60;;
46266;SDS011;31998;48.798;15.066;2023-03-16T07:01:56;6.90;;;5.57;;
46266;SDS011;31998;48.798;15.066;2023-03-16T07:04:22;9.00;;;5.90;;
46266;SDS011;31998;48.798;15.066;2023-03-16T07:06:47;7.83;;;6.40;;
46266;SDS011;31998;48.798;15.066;2023-03-16T07:09:12;8.90;;;5.57;;
46266;SDS011;31998;48.798;15.066;2023-03-16T07:11:38;7.27;;;5.60;;
46266;SDS011;31998;48.798;15.066;2023-03-16T07:14:03;10.90;;;5.50;;
46266;SDS011;31998;48.798;15.066;2023-03-16T07:16:28;11.30;;;7.50;;
46266;SDS011;31998;48.798;15.066;2023-03-16T07:18:54;10.10;;;5.67;;
46266;SDS011;31998;48.798;15.066;2023-03-16T07:21:19;7.13;;;6.43;;
46266;SDS011;31998;48.798;15.066;2023-03-16T07:23:44;6.40;;;5.90;;
46266;SDS011;31998;48.798;15.066;2023-03-16T07:26:10;7.80;;;5.60;;
46266;SDS011;31998;48.798;15.066;2023-03-16T07:28:36;9.60;;;5.83;;
46266;SDS011;31998;48.798;15.066;2023-03-16T07:31:01;6.67;;;6.07;;
46266;SDS011;31998;48.798;15.066;2023-03-16T07:33:27;14.60;;;6.10;;
46266;SDS011;31998;48.798;15.066;2023-03-16T07:35:52;5.37;;;4.87;;
46266;SDS011;31998;48.798;15.066;2023-03-16T07:38:17;5.10;;;4.27;;
46266;SDS011;31998;48.798;15.066;2023-03-16T07:40:42;6.40;;;4.90;;
46266;SDS011;31998;48.798;15.066;2023-03-16T07:43:08;7.57;;;5.80;;
46266;SDS011;31998;48.798;15.066;2023-03-16T07:45:33;7.17;;;6.10;;
46266;SDS011;31998;48.798;15.066;2023-03-16T07:47:58;8.97;;;6.40;;
46266;SDS011;31998;48.798;15.066;2023-03-16T07:50:24;9.27;;;6.70;;
46266;SDS011;31998;48.798;15.066;2023-03-16T07:52:49;6.10;;;5.53;;
46266;SDS011;31998;48.798;15.066;2023-03-16T07:55:14;6.97;;;6.37;;
46266;SDS011;31998;48.798;15.066;2023-03-16T07:57:40;8.33;;;6.03;;
46266;SDS011;31998;48.798;15.066;2023-03-16T08:00:06;4.57;;;4.30;;
46266;SDS011;31998;48.798;15.066;2023-03-16T08:02:31;4.77;;;4.47;;
46266;SDS011;31998;48.798;15.066;2023-03-16T08:04:57;4.13;;;3.83;;
46266;SDS011;31998;48.798;15.066;2023-03-16T08:07:22;4.87;;;4.40;;
46266;SDS011;31998;48.798;15.066;2023-03-16T08:09:48;6.10;;;3.80;;
46266;SDS011;31998;48.798;15.066;2023-03-16T08:12:13;4.80;;;3.90;;
46266;SDS011;31998;48.798;15.066;2023-03-16T08:14:38;7.53;;;4.30;;
46266;SDS011;31998;48.798;15.066;2023-03-16T08:17:04;5.07;;;4.67;;
46266;SDS011;31998;48.798;15.066;2023-03-16T08:19:29;8.70;;;4.60;;
46266;SDS011;31998;48.798;15.066;2023-03-16T08:21:55;4.70;;;3.83;;
46266;SDS011;31998;48.798;15.066;2023-03-16T08:24:22;5.00;;;4.43;;
46266;SDS011;31998;48.798;15.066;2023-03-16T08:26:47;3.80;;;3.50;;
46266;SDS011;31998;48.798;15.066;2023-03-16T08:29:12;5.50;;;4.43;;
46266;SDS011;31998;48.798;15.066;2023-03-16T08:31:38;6.03;;;4.10;;
46266;SDS011;31998;48.798;15.066;2023-03-16T08:34:03;5.50;;;4.80;;
46266;SDS011;31998;48.798;15.066;2023-03-16T08:36:29;6.30;;;3.93;;
46266;SDS011;31998;48.798;15.066;2023-03-16T08:38:54;8.27;;;3.60;;
46266;SDS011;31998;48.798;15.066;2023-03-16T08:41:20;5.70;;;3.60;;
46266;SDS011;31998;48.798;15.066;2023-03-16T08:43:45;6.20;;;3.90;;
46266;SDS011;31998;48.798;15.066;2023-03-16T08:46:11;6.60;;;4.63;;
46266;SDS011;31998;48.798;15.066;2023-03-16T08:48:37;14.67;;;3.67;;
46266;SDS011;31998;48.798;15.066;2023-03-16T08:51:04;4.43;;;4.10;;
46266;SDS011;31998;48.798;15.066;2023-03-16T08:53:33;9.60;;;4.10;;
46266;SDS011;31998;48.798;15.066;2023-03-16T08:56:06;10.10;;;3.60;;
46266;SDS011;31998;48.798;15.066;2023-03-16T08:58:32;5.80;;;3.10;;
46266;SDS011;31998;48.798;15.066;2023-03-16T09:00:58;5.63;;;3.20;;
46266;SDS011;31998;48.798;15.066;2023-03-16T09:03:24;11.23;;;2.83;;
46266;SDS011;31998;48.798;15.066;2023-03-16T09:05:50;5.77;;;3.33;;
46266;SDS011;31998;48.798;15.066;2023-03-16T09:08:15;7.07;;;3.13;;
46266;SDS011;31998;48.798;15.066;2023-03-16T09:10:40;5.20;;;2.50;;
46266;SDS011;31998;48.798;15.066;2023-03-16T09:13:06;10.27;;;2.63;;
46266;SDS011;31998;48.798;15.066;2023-03-16T09:15:32;3.90;;;3.23;;
46266;SDS011;31998;48.798;15.066;2023-03-16T09:17:57;5.90;;;3.03;;
46266;SDS011;31998;48.798;15.066;2023-03-16T09:20:24;2.80;;;2.67;;
46266;SDS011;31998;48.798;15.066;2023-03-16T09:22:51;5.20;;;2.40;;
46266;SDS011;31998;48.798;15.066;2023-03-16T09:25:16;13.47;;;2.57;;
46266;SDS011;31998;48.798;15.066;2023-03-16T09:27:41;3.10;;;2.40;;
46266;SDS011;31998;48.798;15.066;2023-03-16T09:30:07;2.47;;;2.40;;
46266;SDS011;31998;48.798;15.066;2023-03-16T09:32:33;8.53;;;2.87;;
46266;SDS011;31998;48.798;15.066;2023-03-16T09:34:59;4.93;;;3.20;;
46266;SDS011;31998;48.798;15.066;2023-03-16T09:37:24;3.10;;;2.40;;
46266;SDS011;31998;48.798;15.066;2023-03-16T09:39:50;3.37;;;2.53;;
46266;SDS011;31998;48.798;15.066;2023-03-16T09:42:22;8.27;;;2.83;;
46266;SDS011;31998;48.798;15.066;2023-03-16T09:47:16;3.07;;;2.57;;
46266;SDS011;31998;48.798;15.066;2023-03-16T09:49:47;4.23;;;2.70;;
46266;SDS011;31998;48.798;15.066;2023-03-16T09:52:33;2.60;;;2.40;;
46266;SDS011;31998;48.798;15.066;2023-03-16T09:57:36;1.77;;;1.67;;
46266;SDS011;31998;48.798;15.066;2023-03-16T10:02:54;2.23;;;1.83;;
46266;SDS011;31998;48.798;15.066;2023-03-16T10:05:22;3.30;;;2.00;;
46266;SDS011;31998;48.798;15.066;2023-03-16T10:12:52;4.73;;;1.60;;
46266;SDS011;31998;48.798;15.066;2023-03-16T10:15:18;2.50;;;2.30;;
46266;SDS011;31998;48.798;15.066;2023-03-16T10:17:53;2.53;;;2.13;;
46266;SDS011;31998;48.798;15.066;2023-03-16T10:20:20;2.90;;;2.40;;
46266;SDS011;31998;48.798;15.066;2023-03-16T10:22:47;4.00;;;1.80;;
46266;SDS011;31998;48.798;15.066;2023-03-16T10:27:44;3.37;;;1.90;;
46266;SDS011;31998;48.798;15.066;2023-03-16T10:30:20;2.17;;;2.03;;
46266;SDS011;31998;48.798;15.066;2023-03-16T10:32:46;2.70;;;1.90;;
46266;SDS011;31998;48.798;15.066;2023-03-16T10:37:56;1.97;;;1.80;;
46266;SDS011;31998;48.798;15.066;2023-03-16T10:40:22;4.20;;;1.67;;
46266;SDS011;31998;48.798;15.066;2023-03-16T10:42:48;1.83;;;1.70;;
46266;SDS011;31998;48.798;15.066;2023-03-16T10:47:44;4.87;;;2.43;;
46266;SDS011;31998;48.798;15.066;2023-03-16T10:50:12;2.00;;;1.80;;
46266;SDS011;31998;48.798;15.066;2023-03-16T10:52:42;5.53;;;1.73;;
46266;SDS011;31998;48.798;15.066;2023-03-16T10:55:09;5.03;;;1.37;;
46266;SDS011;31998;48.798;15.066;2023-03-16T10:57:35;1.40;;;1.30;;
46266;SDS011;31998;48.798;15.066;2023-03-16T11:02:32;2.30;;;0.90;;
46266;SDS011;31998;48.798;15.066;2023-03-16T11:04:58;3.53;;;1.13;;
46266;SDS011;31998;48.798;15.066;2023-03-16T11:07:23;3.53;;;1.37;;
46266;SDS011;31998;48.798;15.066;2023-03-16T11:09:53;3.87;;;2.07;;
46266;SDS011;31998;48.798;15.066;2023-03-16T11:12:27;1.10;;;1.10;;
46266;SDS011;31998;48.798;15.066;2023-03-16T11:14:54;1.37;;;1.13;;
46266;SDS011;31998;48.798;15.066;2023-03-16T11:17:36;1.17;;;1.17;;
46266;SDS011;31998;48.798;15.066;2023-03-16T11:20:05;1.40;;;1.30;;
46266;SDS011;31998;48.798;15.066;2023-03-16T11:22:38;5.10;;;1.43;;
46266;SDS011;31998;48.798;15.066;2023-03-16T11:30:10;2.60;;;2.10;;
46266;SDS011;31998;48.798;15.066;2023-03-16T11:32:38;2.47;;;1.30;;
46266;SDS011;31998;48.798;15.066;2023-03-16T11:35:15;1.80;;;1.70;;
46266;SDS011;31998;48.798;15.066;2023-03-16T11:40:31;1.80;;;1.70;;
46266;SDS011;31998;48.798;15.066;2023-03-16T11:48:25;1.30;;;1.30;;
46266;SDS011;31998;48.798;15.066;2023-03-16T11:56:28;1.40;;;1.30;;
46266;SDS011;31998;48.798;15.066;2023-03-16T11:59:18;1.90;;;1.43;;
46266;SDS011;31998;48.798;15.066;2023-03-16T12:04:21;3.50;;;1.77;;
46266;SDS011;31998;48.798;15.066;2023-03-16T12:14:37;5.50;;;1.70;;
46266;SDS011;31998;48.798;15.066;2023-03-16T12:17:08;2.10;;;1.50;;
46266;SDS011;31998;48.798;15.066;2023-03-16T12:25:03;2.00;;;0.93;;
46266;SDS011;31998;48.798;15.066;2023-03-16T12:27:37;1.20;;;1.10;;
46266;SDS011;31998;48.798;15.066;2023-03-16T12:31:05;1.10;;;1.07;;
46266;SDS011;31998;48.798;15.066;2023-03-16T12:38:32;3.37;;;0.90;;
46266;SDS011;31998;48.798;15.066;2023-03-16T12:46:09;1.23;;;1.23;;
46266;SDS011;31998;48.798;15.066;2023-03-16T12:48:37;3.67;;;1.10;;
46266;SDS011;31998;48.798;15.066;2023-03-16T12:51:04;0.70;;;0.70;;
46266;SDS011;31998;48.798;15.066;2023-03-16T12:56:05;1.77;;;1.30;;
46266;SDS011;31998;48.798;15.066;2023-03-16T12:58:30;1.20;;;1.20;;
46266;SDS011;31998;48.798;15.066;2023-03-16T13:00:57;2.73;;;0.83;;
46266;SDS011;31998;48.798;15.066;2023-03-16T13:03:23;1.37;;;1.23;;
46266;SDS011;31998;48.798;15.066;2023-03-16T13:05:50;1.73;;;1.00;;
46266;SDS011;31998;48.798;15.066;2023-03-16T13:08:16;1.60;;;1.10;;
46266;SDS011;31998;48.798;15.066;2023-03-16T13:10:42;3.87;;;1.33;;
46266;SDS011;31998;48.798;15.066;2023-03-16T13:13:23;2.70;;;0.93;;
46266;SDS011;31998;48.798;15.066;2023-03-16T13:15:50;2.30;;;1.17;;
46266;SDS011;31998;48.798;15.066;2023-03-16T13:18:26;1.17;;;1.07;;
46266;SDS011;31998;48.798;15.066;2023-03-16T13:20:58;2.57;;;0.80;;
46266;SDS011;31998;48.798;15.066;2023-03-16T13:23:25;3.30;;;1.20;;
46266;SDS011;31998;48.798;15.066;2023-03-16T13:28:24;2.83;;;1.13;;
46266;SDS011;31998;48.798;15.066;2023-03-16T13:30:50;0.87;;;0.87;;
46266;SDS011;31998;48.798;15.066;2023-03-16T13:33:19;2.90;;;0.90;;
46266;SDS011;31998;48.798;15.066;2023-03-16T13:35:46;2.30;;;1.00;;
46266;SDS011;31998;48.798;15.066;2023-03-16T13:38:13;4.50;;;3.80;;
46266;SDS011;31998;48.798;15.066;2023-03-16T13:40:47;1.13;;;1.03;;
46266;SDS011;31998;48.798;15.066;2023-03-16T13:43:15;1.30;;;1.20;;
46266;SDS011;31998;48.798;15.066;2023-03-16T13:45:41;5.43;;;0.97;;
46266;SDS011;31998;48.798;15.066;2023-03-16T13:48:10;3.00;;;0.80;;
46266;SDS011;31998;48.798;15.066;2023-03-16T13:50:36;1.10;;;1.10;;
46266;SDS011;31998;48.798;15.066;2023-03-16T13:53:05;2.40;;;0.93;;
46266;SDS011;31998;48.798;15.066;2023-03-16T13:55:35;1.73;;;0.83;;
46266;SDS011;31998;48.798;15.066;2023-03-16T13:58:01;1.80;;;0.80;;
46266;SDS011;31998;48.798;15.066;2023-03-16T14:00:28;1.53;;;0.87;;
46266;SDS011;31998;48.798;15.066;2023-03-16T14:02:56;2.10;;;1.20;;
46266;SDS011;31998;48.798;15.066;2023-03-16T14:05:24;6.23;;;1.37;;
46266;SDS011;31998;48.798;15.066;2023-03-16T14:07:50;1.23;;;1.03;;
46266;SDS011;31998;48.798;15.066;2023-03-16T14:10:16;2.83;;;1.13;;
46266;SDS011;31998;48.798;15.066;2023-03-16T14:15:16;11.60;;;0.90;;
46266;SDS011;31998;48.798;15.066;2023-03-16T14:17:42;1.00;;;1.00;;
46266;SDS011;31998;48.798;15.066;2023-03-16T14:20:08;5.10;;;1.53;;
46266;SDS011;31998;48.798;15.066;2023-03-16T14:22:36;1.13;;;0.80;;
46266;SDS011;31998;48.798;15.066;2023-03-16T14:25:02;1.80;;;1.03;;
46266;SDS011;31998;48.798;15.066;2023-03-16T14:32:52;3.17;;;1.10;;
46266;SDS011;31998;48.798;15.066;2023-03-16T14:35:19;0.60;;;0.60;;
46266;SDS011;31998;48.798;15.066;2023-03-16T14:37:45;2.23;;;1.07;;
46266;SDS011;31998;48.798;15.066;2023-03-16T14:40:27;0.83;;;0.83;;
46266;SDS011;31998;48.798;15.066;2023-03-16T14:42:53;1.27;;;1.10;;
46266;SDS011;31998;48.798;15.066;2023-03-16T14:45:19;1.00;;;0.93;;
46266;SDS011;31998;48.798;15.066;2023-03-16T14:47:45;1.03;;;0.90;;
46266;SDS011;31998;48.798;15.066;2023-03-16T14:50:44;1.23;;;1.07;;
46266;SDS011;31998;48.798;15.066;2023-03-16T14:53:03;11.60;;;1.30;;
46266;SDS011;31998;48.798;15.066;2023-03-16T14:55:28;1.00;;;0.90;;
46266;SDS011;31998;48.798;15.066;2023-03-16T14:57:54;1.70;;;1.07;;
46266;SDS011;31998;48.798;15.066;2023-03-16T15:00:19;5.00;;;1.73;;
46266;SDS011;31998;48.798;15.066;2023-03-16T15:02:56;0.83;;;0.83;;
46266;SDS011;31998;48.798;15.066;2023-03-16T15:05:23;1.70;;;1.57;;
46266;SDS011;31998;48.798;15.066;2023-03-16T15:07:51;3.33;;;1.80;;
46266;SDS011;31998;48.798;15.066;2023-03-16T15:10:21;2.33;;;1.73;;
46266;SDS011;31998;48.798;15.066;2023-03-16T15:12:47;4.93;;;2.73;;
46266;SDS011;31998;48.798;15.066;2023-03-16T15:15:23;5.83;;;3.73;;
46266;SDS011;31998;48.798;15.066;2023-03-16T15:17:51;7.90;;;3.53;;
46266;SDS011;31998;48.798;15.066;2023-03-16T15:20:20;5.03;;;4.63;;
46266;SDS011;31998;48.798;15.066;2023-03-16T15:22:47;8.10;;;4.90;;
46266;SDS011;31998;48.798;15.066;2023-03-16T15:28:01;9.07;;;4.57;;
46266;SDS011;31998;48.798;15.066;2023-03-16T15:30:26;9.53;;;4.77;;
46266;SDS011;31998;48.798;15.066;2023-03-16T15:32:52;9.23;;;5.60;;
46266;SDS011;31998;48.798;15.066;2023-03-16T15:35:18;7.80;;;6.67;;
46266;SDS011;31998;48.798;15.066;2023-03-16T15:37:43;7.70;;;6.33;;
46266;SDS011;31998;48.798;15.066;2023-03-16T15:40:29;6.33;;;5.73;;
46266;SDS011;31998;48.798;15.066;2023-03-16T15:42:54;7.03;;;5.97;;
46266;SDS011;31998;48.798;15.066;2023-03-16T15:45:21;15.23;;;5.80;;
46266;SDS011;31998;48.798;15.066;2023-03-16T15:47:47;7.80;;;4.30;;
46266;SDS011;31998;48.798;15.066;2023-03-16T15:50:13;5.77;;;3.37;;
46266;SDS011;31998;48.798;15.066;2023-03-16T15:52:40;3.17;;;1.70;;
46266;SDS011;31998;48.798;15.066;2023-03-16T15:55:20;2.13;;;1.80;;
46266;SDS011;31998;48.798;15.066;2023-03-16T15:57:47;1.17;;;1.07;;
46266;SDS011;31998;48.798;15.066;2023-03-16T16:02:44;1.87;;;1.77;;
46266;SDS011;31998;48.798;15.066;2023-03-16T16:05:09;1.73;;;1.17;;
46266;SDS011;31998;48.798;15.066;2023-03-16T16:07:34;4.20;;;1.40;;